createdAt,value
2022-08-14T00:04:02.104Z,80.43
2022-08-14T00:09:28.099Z,80.54
2022-08-14T00:14:37.498Z,80.48
2022-08-14T00:19:44.415Z,80.90
2022-08-14T00:24:52.336Z,80.97
2022-08-14T00:29:58.323Z,81.12
2022-08-14T00:35:06.679Z,81.11
2022-08-14T00:40:33.573Z,81.40
2022-08-14T00:45:42.057Z,81.63
2022-08-14T00:50:48.464Z,81.45
2022-08-14T00:55:56.597Z,81.43
2022-08-14T01:01:08.153Z,81.42
2022-08-14T01:06:18.471Z,81.10
2022-08-14T01:11:25.413Z,81.06
2022-08-14T01:16:38.029Z,80.70
2022-08-14T01:21:47.342Z,80.68
2022-08-14T01:27:00.737Z,80.49
2022-08-14T01:32:10.579Z,80.39
2022-08-14T01:37:16.586Z,80.10
2022-08-14T01:42:31.840Z,79.98
2022-08-14T01:47:42.022Z,80.01
2022-08-14T01:52:59.174Z,79.80
2022-08-14T01:58:19.427Z,80.15
2022-08-14T02:03:30.861Z,80.00
2022-08-14T02:08:38.216Z,80.14
2022-08-14T02:14:07.054Z,80.30
2022-08-14T02:19:16.546Z,80.43
2022-08-14T02:24:39.725Z,80.93
2022-08-14T02:29:59.560Z,81.13
2022-08-14T02:35:13.723Z,80.99
2022-08-14T02:40:32.452Z,81.06
2022-08-14T02:45:44.341Z,81.74
2022-08-14T02:50:51.630Z,82.29
2022-08-14T02:56:03.235Z,82.71
2022-08-14T03:01:18.337Z,82.67
2022-08-14T03:06:48.887Z,82.30
2022-08-14T03:11:52.253Z,81.95
2022-08-14T03:16:59.511Z,81.79
2022-08-14T03:22:09.379Z,81.79
2022-08-14T03:27:26.588Z,82.09
2022-08-14T03:32:43.764Z,81.56
2022-08-14T03:39:16.158Z,81.37
2022-08-14T03:43:18.771Z,81.54
2022-08-14T03:48:30.077Z,81.43
2022-08-14T03:53:38.512Z,81.44
2022-08-14T03:58:46.269Z,81.52
2022-08-14T04:03:57.714Z,81.42
2022-08-14T04:09:04.345Z,81.57
2022-08-14T04:14:15.184Z,81.44
2022-08-14T04:19:24.036Z,80.90
2022-08-14T04:24:30.819Z,80.57
2022-08-14T04:29:45.346Z,80.28
2022-08-14T04:34:52.188Z,79.50
2022-08-14T04:40:17.510Z,79.15
2022-08-14T04:45:24.985Z,78.84
2022-08-14T04:50:43.475Z,78.77
2022-08-14T04:55:51.997Z,78.74
2022-08-14T05:00:59.891Z,78.75
2022-08-14T05:06:07.808Z,78.77
2022-08-14T05:11:36.734Z,78.52
2022-08-14T05:16:46.607Z,78.82
2022-08-14T05:22:15.952Z,79.54
2022-08-14T05:27:24.118Z,79.17
2022-08-14T05:32:30.234Z,72.07
2022-08-14T05:37:36.070Z,64.40
2022-08-14T05:42:41.973Z,60.31
2022-08-14T05:47:52.742Z,55.86
2022-08-14T05:52:59.625Z,56.06
2022-08-14T05:58:08.409Z,55.43
2022-08-14T06:03:16.832Z,58.07
2022-08-14T06:08:41.329Z,59.88
2022-08-14T06:13:47.983Z,61.91
2022-08-14T06:18:54.812Z,63.22
2022-08-14T06:24:10.599Z,64.16
2022-08-14T06:29:25.197Z,65.37
2022-08-14T06:35:03.922Z,64.36
2022-08-14T06:39:57.298Z,60.60
2022-08-14T06:45:04.078Z,61.14
2022-08-14T06:50:14.388Z,61.12
2022-08-14T06:55:25.934Z,60.46
2022-08-14T07:00:34.476Z,60.90
2022-08-14T07:05:55.886Z,60.37
2022-08-14T07:11:04.666Z,61.03
2022-08-14T07:16:13.106Z,62.12
2022-08-14T07:21:20.021Z,60.40
2022-08-14T07:26:25.868Z,56.40
2022-08-14T07:31:35.999Z,52.31
2022-08-14T07:36:53.745Z,50.69
2022-08-14T07:42:04.782Z,46.69
2022-08-14T07:47:10.927Z,43.66
2022-08-14T07:52:22.025Z,41.86
2022-08-14T07:57:28.561Z,41.64
2022-08-14T08:02:35.401Z,42.18
2022-08-14T08:07:48.094Z,43.40
2022-08-14T08:12:56.997Z,41.46
2022-08-14T08:18:04.944Z,38.43
2022-08-14T08:23:12.337Z,37.46
2022-08-14T08:28:28.109Z,36.04
2022-08-14T08:33:37.232Z,36.78
2022-08-14T08:39:18.620Z,39.93
2022-08-14T08:44:31.173Z,41.00
2022-08-14T08:49:48.722Z,42.00
2022-08-14T08:55:06.567Z,43.99
2022-08-14T09:00:25.477Z,45.05
2022-08-14T09:05:34.354Z,46.40
2022-08-14T09:10:40.210Z,48.40
2022-08-14T09:15:49.850Z,49.36
2022-08-14T09:20:58.572Z,49.62
2022-08-14T09:26:05.157Z,45.74
2022-08-14T09:31:43.090Z,44.42
2022-08-14T09:37:17.265Z,45.71
2022-08-14T09:42:50.207Z,46.13
2022-08-14T09:47:58.492Z,47.31
2022-08-14T09:53:10.486Z,47.94
2022-08-14T09:58:24.672Z,48.05
2022-08-14T10:03:36.311Z,47.74
2022-08-14T10:08:50.906Z,48.23
2022-08-14T10:14:02.466Z,47.33
2022-08-14T10:19:10.746Z,44.28
2022-08-14T10:24:36.435Z,41.88
2022-08-14T10:29:47.690Z,41.59
2022-08-14T10:35:04.023Z,42.71
2022-08-14T10:40:37.789Z,42.83
2022-08-14T10:45:46.370Z,42.63
2022-08-14T10:50:59.804Z,42.86
2022-08-14T10:56:22.025Z,43.77
2022-08-14T11:01:43.141Z,43.00
2022-08-14T11:06:56.717Z,41.09
2022-08-14T11:12:34.865Z,40.85
2022-08-14T11:17:31.752Z,41.52
2022-08-14T11:23:02.913Z,40.84
2022-08-14T11:28:11.075Z,42.05
2022-08-14T11:33:25.467Z,43.01
2022-08-14T11:38:38.133Z,42.88
2022-08-14T11:43:58.243Z,43.72
2022-08-14T11:49:06.674Z,44.75
2022-08-14T11:54:15.455Z,44.90
2022-08-14T11:59:30.934Z,44.93
2022-08-14T12:04:50.776Z,46.08
2022-08-14T12:09:58.704Z,46.57
2022-08-14T12:15:07.131Z,47.17
2022-08-14T12:20:14.961Z,47.03
2022-08-14T12:25:45.202Z,47.37
2022-08-14T12:31:20.473Z,48.87
2022-08-14T12:36:31.078Z,49.99
2022-08-14T12:41:38.258Z,50.23
2022-08-14T12:46:46.856Z,50.45
2022-08-14T12:52:00.053Z,50.94
2022-08-14T12:57:08.459Z,49.82
2022-08-14T13:02:25.991Z,50.10
2022-08-14T13:07:33.297Z,49.77
2022-08-14T13:12:56.797Z,49.79
2022-08-14T13:18:08.479Z,49.68
2022-08-14T13:23:14.878Z,49.36
2022-08-14T13:28:33.140Z,47.83
2022-08-14T13:33:41.357Z,47.98
2022-08-14T13:38:50.183Z,47.90
2022-08-14T13:44:00.026Z,47.91
2022-08-14T13:49:12.036Z,48.50
2022-08-14T13:54:23.150Z,48.66
2022-08-14T13:59:37.784Z,48.21
2022-08-14T14:04:49.510Z,48.21
2022-08-14T14:09:58.608Z,48.28
2022-08-14T14:15:07.064Z,47.60
2022-08-14T14:20:35.755Z,47.13
2022-08-14T14:25:51.454Z,47.62
2022-08-14T14:31:06.128Z,47.49
2022-08-14T14:36:20.936Z,47.96
2022-08-14T14:41:37.363Z,47.78
2022-08-14T14:46:51.016Z,47.82
2022-08-14T14:51:59.066Z,48.11
2022-08-14T14:57:09.394Z,48.61
2022-08-14T15:02:33.331Z,48.96
2022-08-14T15:07:40.235Z,49.96
2022-08-14T15:12:57.924Z,50.61
2022-08-14T15:18:36.571Z,51.45
2022-08-14T15:23:44.348Z,51.95
2022-08-14T15:29:03.088Z,52.57
2022-08-14T15:34:45.551Z,53.09
2022-08-14T15:39:38.400Z,53.77
2022-08-14T15:44:58.498Z,53.34
2022-08-14T15:50:09.569Z,52.58
2022-08-14T15:55:16.721Z,52.83
2022-08-14T16:00:44.135Z,53.06
2022-08-14T16:05:55.750Z,53.23
2022-08-14T16:11:05.137Z,53.57
2022-08-14T16:16:49.604Z,53.98
2022-08-14T16:22:02.213Z,54.78
2022-08-14T16:27:11.050Z,56.25
2022-08-14T16:32:35.745Z,57.54
2022-08-14T16:37:43.774Z,58.44
2022-08-14T16:43:04.146Z,59.04
2022-08-14T16:48:57.107Z,59.90
2022-08-14T16:53:44.682Z,60.40
2022-08-14T16:59:09.499Z,60.94
2022-08-14T17:04:24.670Z,61.70
2022-08-14T17:09:35.460Z,62.33
2022-08-14T17:14:54.539Z,62.76
2022-08-14T17:20:33.889Z,63.28
2022-08-14T17:25:36.395Z,63.79
2022-08-14T17:30:54.487Z,63.85
2022-08-14T17:36:20.867Z,64.24
2022-08-14T17:41:36.050Z,64.81
2022-08-14T17:46:50.357Z,65.12
2022-08-14T17:52:16.977Z,65.85
2022-08-14T17:57:28.458Z,66.52
2022-08-14T18:02:35.375Z,67.88
2022-08-14T18:07:59.571Z,68.85
2022-08-14T18:13:08.027Z,68.23
2022-08-14T18:18:16.701Z,63.41
2022-08-14T18:23:23.030Z,62.80
2022-08-14T18:28:51.257Z,68.90
2022-08-14T18:34:06.171Z,74.36
2022-08-14T18:39:28.288Z,78.70
2022-08-14T18:45:15.447Z,81.45
2022-08-14T18:50:27.948Z,84.42
2022-08-14T18:56:02.127Z,85.89
2022-08-14T19:01:24.549Z,87.59
2022-08-14T19:06:44.698Z,88.89
2022-08-14T19:11:51.544Z,89.05
2022-08-14T19:16:58.182Z,89.78
2022-08-14T19:22:12.338Z,90.67
2022-08-14T19:27:23.510Z,91.14
2022-08-14T19:32:40.313Z,91.78
2022-08-14T19:37:52.503Z,92.37
2022-08-14T19:43:00.806Z,92.71
2022-08-14T19:48:13.283Z,92.84
2022-08-14T19:53:20.188Z,93.06
2022-08-14T19:58:55.137Z,93.19
2022-08-14T20:04:06.650Z,93.37
2022-08-14T20:11:08.565Z,93.80
2022-08-14T20:14:39.714Z,93.96
2022-08-14T20:19:58.088Z,94.16
2022-08-14T20:25:18.358Z,94.38
2022-08-14T20:30:34.019Z,94.87
2022-08-14T20:35:51.599Z,95.42
2022-08-14T20:41:00.007Z,95.65
2022-08-14T20:46:14.809Z,96.06
2022-08-14T20:51:26.352Z,96.53
2022-08-14T20:56:44.630Z,96.27
2022-08-14T21:01:55.366Z,96.54
2022-08-14T21:07:24.812Z,96.55
2022-08-14T21:12:34.960Z,96.74
2022-08-14T21:17:43.136Z,96.89
2022-08-14T21:22:49.511Z,96.68
2022-08-14T21:27:57.482Z,96.88
2022-08-14T21:33:05.326Z,96.97
2022-08-14T21:38:17.982Z,97.07
2022-08-14T21:43:26.999Z,97.88
2022-08-14T21:48:36.535Z,98.86
2022-08-14T21:53:54.125Z,98.32
2022-08-14T21:59:09.079Z,98.70
2022-08-14T22:04:33.201Z,98.63
2022-08-14T22:09:42.752Z,99.01
2022-08-14T22:14:49.128Z,98.86
2022-08-14T22:19:57.049Z,98.97
2022-08-14T22:25:03.887Z,98.99
2022-08-14T22:30:15.264Z,98.34
2022-08-14T22:35:25.133Z,97.71
2022-08-14T22:41:01.920Z,97.61
2022-08-14T22:45:57.810Z,98.01
2022-08-14T22:51:08.464Z,97.99
2022-08-14T22:56:21.858Z,98.26
2022-08-14T23:01:57.274Z,98.73
2022-08-14T23:07:04.707Z,99.37
2022-08-14T23:12:27.910Z,99.87
2022-08-14T23:17:40.347Z,100.00
2022-08-14T23:22:47.993Z,100.00
2022-08-14T23:28:03.186Z,99.65
2022-08-14T23:33:16.372Z,99.89
2022-08-14T23:38:30.494Z,99.84
2022-08-14T23:43:39.065Z,99.88
2022-08-14T23:48:46.635Z,99.99
2022-08-14T23:53:53.383Z,100.00
2022-08-14T23:59:01.113Z,99.99
